sensor_id;sensor_type;location;lat;lon;timestamp;P1;durP1;ratioP1;P2;durP2;ratioP2
26806;SDS011;14380;49.910;6.792;2022-08-03T00:01:02;2.15;;;1.60;;
26806;SDS011;14380;49.910;6.792;2022-08-03T00:03:30;2.10;;;1.90;;
26806;SDS011;14380;49.910;6.792;2022-08-03T00:05:57;5.97;;;1.70;;
26806;SDS011;14380;49.910;6.792;2022-08-03T00:08:24;2.42;;;1.70;;
26806;SDS011;14380;49.910;6.792;2022-08-03T00:10:50;1.80;;;1.60;;
26806;SDS011;14380;49.910;6.792;2022-08-03T00:13:17;1.60;;;1.50;;
26806;SDS011;14380;49.910;6.792;2022-08-03T00:15:44;1.38;;;1.27;;
26806;SDS011;14380;49.910;6.792;2022-08-03T00:18:10;3.80;;;1.85;;
26806;SDS011;14380;49.910;6.792;2022-08-03T00:20:38;2.10;;;1.85;;
26806;SDS011;14380;49.910;6.792;2022-08-03T00:23:05;5.55;;;2.03;;
26806;SDS011;14380;49.910;6.792;2022-08-03T00:25:32;2.30;;;2.10;;
26806;SDS011;14380;49.910;6.792;2022-08-03T00:28:00;2.35;;;1.80;;
26806;SDS011;14380;49.910;6.792;2022-08-03T00:30:27;2.42;;;1.70;;
26806;SDS011;14380;49.910;6.792;2022-08-03T00:32:53;1.88;;;1.77;;
26806;SDS011;14380;49.910;6.792;2022-08-03T00:35:20;5.97;;;2.08;;
26806;SDS011;14380;49.910;6.792;2022-08-03T00:37:49;1.67;;;1.40;;
26806;SDS011;14380;49.910;6.792;2022-08-03T00:40:16;2.05;;;1.83;;
26806;SDS011;14380;49.910;6.792;2022-08-03T00:42:47;1.80;;;1.70;;
26806;SDS011;14380;49.910;6.792;2022-08-03T00:45:16;4.10;;;1.92;;
26806;SDS011;14380;49.910;6.792;2022-08-03T00:47:43;2.08;;;1.73;;
26806;SDS011;14380;49.910;6.792;2022-08-03T00:50:10;1.70;;;1.60;;
26806;SDS011;14380;49.910;6.792;2022-08-03T00:52:36;4.53;;;1.90;;
26806;SDS011;14380;49.910;6.792;2022-08-03T00:55:05;3.67;;;1.92;;
26806;SDS011;14380;49.910;6.792;2022-08-03T00:57:32;2.65;;;1.77;;
26806;SDS011;14380;49.910;6.792;2022-08-03T00:59:59;1.80;;;1.67;;
26806;SDS011;14380;49.910;6.792;2022-08-03T01:02:26;2.85;;;1.92;;
26806;SDS011;14380;49.910;6.792;2022-08-03T01:04:53;1.98;;;1.88;;
26806;SDS011;14380;49.910;6.792;2022-08-03T01:07:21;3.50;;;1.85;;
26806;SDS011;14380;49.910;6.792;2022-08-03T01:09:59;2.90;;;2.00;;
26806;SDS011;14380;49.910;6.792;2022-08-03T01:12:34;6.72;;;1.90;;
26806;SDS011;14380;49.910;6.792;2022-08-03T01:15:06;2.72;;;1.92;;
26806;SDS011;14380;49.910;6.792;2022-08-03T01:17:39;3.88;;;2.15;;
26806;SDS011;14380;49.910;6.792;2022-08-03T01:20:14;2.42;;;1.90;;
26806;SDS011;14380;49.910;6.792;2022-08-03T01:22:51;2.35;;;2.05;;
26806;SDS011;14380;49.910;6.792;2022-08-03T01:26:02;2.33;;;1.95;;
26806;SDS011;14380;49.910;6.792;2022-08-03T01:28:44;2.22;;;2.03;;
26806;SDS011;14380;49.910;6.792;2022-08-03T01:31:28;3.45;;;2.20;;
26806;SDS011;14380;49.910;6.792;2022-08-03T01:34:01;2.35;;;2.15;;
26806;SDS011;14380;49.910;6.792;2022-08-03T01:36:31;1.88;;;1.77;;
26806;SDS011;14380;49.910;6.792;2022-08-03T01:39:02;5.00;;;2.42;;
26806;SDS011;14380;49.910;6.792;2022-08-03T01:41:35;5.55;;;1.60;;
26806;SDS011;14380;49.910;6.792;2022-08-03T01:44:07;2.05;;;1.90;;
26806;SDS011;14380;49.910;6.792;2022-08-03T01:46:37;2.13;;;1.92;;
26806;SDS011;14380;49.910;6.792;2022-08-03T01:49:06;4.75;;;1.92;;
26806;SDS011;14380;49.910;6.792;2022-08-03T01:51:35;3.00;;;2.50;;
26806;SDS011;14380;49.910;6.792;2022-08-03T01:54:03;1.92;;;1.73;;
26806;SDS011;14380;49.910;6.792;2022-08-03T01:56:30;3.97;;;2.15;;
26806;SDS011;14380;49.910;6.792;2022-08-03T01:58:58;2.40;;;2.20;;
26806;SDS011;14380;49.910;6.792;2022-08-03T02:01:27;3.83;;;2.25;;
26806;SDS011;14380;49.910;6.792;2022-08-03T02:03:56;2.00;;;1.90;;
26806;SDS011;14380;49.910;6.792;2022-08-03T02:06:25;2.35;;;2.15;;
26806;SDS011;14380;49.910;6.792;2022-08-03T02:08:54;2.92;;;2.10;;
26806;SDS011;14380;49.910;6.792;2022-08-03T02:11:24;2.28;;;2.08;;
26806;SDS011;14380;49.910;6.792;2022-08-03T02:13:51;2.83;;;2.10;;
26806;SDS011;14380;49.910;6.792;2022-08-03T02:16:20;3.50;;;1.92;;
26806;SDS011;14380;49.910;6.792;2022-08-03T02:18:48;2.70;;;2.38;;
26806;SDS011;14380;49.910;6.792;2022-08-03T02:21:18;2.67;;;2.22;;
26806;SDS011;14380;49.910;6.792;2022-08-03T02:23:46;3.65;;;2.10;;
26806;SDS011;14380;49.910;6.792;2022-08-03T02:26:13;1.85;;;1.75;;
26806;SDS011;14380;49.910;6.792;2022-08-03T02:28:43;3.85;;;2.45;;
26806;SDS011;14380;49.910;6.792;2022-08-03T02:31:14;3.03;;;2.13;;
26806;SDS011;14380;49.910;6.792;2022-08-03T02:33:46;2.95;;;2.25;;
26806;SDS011;14380;49.910;6.792;2022-08-03T02:36:18;2.05;;;1.80;;
26806;SDS011;14380;49.910;6.792;2022-08-03T02:38:50;2.83;;;2.10;;
26806;SDS011;14380;49.910;6.792;2022-08-03T02:41:21;2.63;;;2.20;;
26806;SDS011;14380;49.910;6.792;2022-08-03T02:43:50;4.10;;;2.10;;
26806;SDS011;14380;49.910;6.792;2022-08-03T02:46:21;2.58;;;2.25;;
26806;SDS011;14380;49.910;6.792;2022-08-03T02:48:53;2.28;;;2.05;;
26806;SDS011;14380;49.910;6.792;2022-08-03T02:51:24;2.50;;;2.30;;
26806;SDS011;14380;49.910;6.792;2022-08-03T02:53:55;3.00;;;2.13;;
26806;SDS011;14380;49.910;6.792;2022-08-03T02:56:25;4.78;;;2.40;;
26806;SDS011;14380;49.910;6.792;2022-08-03T02:58:53;2.50;;;2.30;;
26806;SDS011;14380;49.910;6.792;2022-08-03T03:01:21;3.05;;;2.15;;
26806;SDS011;14380;49.910;6.792;2022-08-03T03:03:50;3.00;;;2.30;;
26806;SDS011;14380;49.910;6.792;2022-08-03T03:06:19;8.75;;;2.50;;
26806;SDS011;14380;49.910;6.792;2022-08-03T03:08:48;2.72;;;2.25;;
26806;SDS011;14380;49.910;6.792;2022-08-03T03:11:17;2.47;;;2.28;;
26806;SDS011;14380;49.910;6.792;2022-08-03T03:13:46;3.08;;;2.67;;
26806;SDS011;14380;49.910;6.792;2022-08-03T03:16:14;3.83;;;2.42;;
26806;SDS011;14380;49.910;6.792;2022-08-03T03:18:42;4.07;;;2.20;;
26806;SDS011;14380;49.910;6.792;2022-08-03T03:21:10;3.00;;;2.70;;
26806;SDS011;14380;49.910;6.792;2022-08-03T03:23:38;3.78;;;2.63;;
26806;SDS011;14380;49.910;6.792;2022-08-03T03:26:07;3.17;;;2.42;;
26806;SDS011;14380;49.910;6.792;2022-08-03T03:28:34;3.15;;;2.47;;
26806;SDS011;14380;49.910;6.792;2022-08-03T03:31:02;3.28;;;2.60;;
26806;SDS011;14380;49.910;6.792;2022-08-03T03:33:31;3.03;;;2.78;;
26806;SDS011;14380;49.910;6.792;2022-08-03T03:35:59;2.78;;;2.58;;
26806;SDS011;14380;49.910;6.792;2022-08-03T03:38:26;4.75;;;2.90;;
26806;SDS011;14380;49.910;6.792;2022-08-03T03:40:53;4.43;;;2.75;;
26806;SDS011;14380;49.910;6.792;2022-08-03T03:43:22;2.85;;;2.53;;
26806;SDS011;14380;49.910;6.792;2022-08-03T03:45:49;2.58;;;2.33;;
26806;SDS011;14380;49.910;6.792;2022-08-03T03:48:17;4.43;;;2.45;;
26806;SDS011;14380;49.910;6.792;2022-08-03T03:50:44;2.33;;;2.13;;
26806;SDS011;14380;49.910;6.792;2022-08-03T03:53:12;3.40;;;2.33;;
26806;SDS011;14380;49.910;6.792;2022-08-03T03:55:40;3.88;;;2.60;;
26806;SDS011;14380;49.910;6.792;2022-08-03T03:58:07;3.03;;;2.53;;
26806;SDS011;14380;49.910;6.792;2022-08-03T04:00:35;2.42;;;2.22;;
26806;SDS011;14380;49.910;6.792;2022-08-03T04:03:02;4.53;;;2.60;;
26806;SDS011;14380;49.910;6.792;2022-08-03T04:05:29;3.20;;;2.90;;
26806;SDS011;14380;49.910;6.792;2022-08-03T04:08:13;2.45;;;2.25;;
26806;SDS011;14380;49.910;6.792;2022-08-03T04:11:04;3.30;;;2.40;;
26806;SDS011;14380;49.910;6.792;2022-08-03T04:13:37;3.28;;;2.15;;
26806;SDS011;14380;49.910;6.792;2022-08-03T04:16:07;2.72;;;2.50;;
26806;SDS011;14380;49.910;6.792;2022-08-03T04:18:37;2.90;;;2.50;;
26806;SDS011;14380;49.910;6.792;2022-08-03T04:21:09;6.05;;;2.47;;
26806;SDS011;14380;49.910;6.792;2022-08-03T04:23:39;2.70;;;2.50;;
26806;SDS011;14380;49.910;6.792;2022-08-03T04:26:10;3.05;;;2.78;;
26806;SDS011;14380;49.910;6.792;2022-08-03T04:28:39;4.65;;;2.50;;
26806;SDS011;14380;49.910;6.792;2022-08-03T04:31:10;4.72;;;2.65;;
26806;SDS011;14380;49.910;6.792;2022-08-03T04:33:38;3.92;;;2.42;;
26806;SDS011;14380;49.910;6.792;2022-08-03T04:36:10;4.32;;;2.80;;
26806;SDS011;14380;49.910;6.792;2022-08-03T04:38:43;3.60;;;2.53;;
26806;SDS011;14380;49.910;6.792;2022-08-03T04:41:18;3.85;;;2.97;;
26806;SDS011;14380;49.910;6.792;2022-08-03T04:43:46;4.28;;;3.25;;
26806;SDS011;14380;49.910;6.792;2022-08-03T04:46:15;3.67;;;3.03;;
26806;SDS011;14380;49.910;6.792;2022-08-03T04:48:45;3.50;;;2.90;;
26806;SDS011;14380;49.910;6.792;2022-08-03T04:51:11;4.78;;;2.90;;
26806;SDS011;14380;49.910;6.792;2022-08-03T04:53:38;4.40;;;2.88;;
26806;SDS011;14380;49.910;6.792;2022-08-03T04:56:05;3.20;;;2.90;;
26806;SDS011;14380;49.910;6.792;2022-08-03T04:58:33;3.30;;;3.00;;
26806;SDS011;14380;49.910;6.792;2022-08-03T05:00:59;5.80;;;2.70;;
26806;SDS011;14380;49.910;6.792;2022-08-03T05:03:27;3.47;;;2.50;;
26806;SDS011;14380;49.910;6.792;2022-08-03T05:05:55;4.10;;;2.55;;
26806;SDS011;14380;49.910;6.792;2022-08-03T05:08:22;5.70;;;3.17;;
26806;SDS011;14380;49.910;6.792;2022-08-03T05:10:49;4.55;;;2.85;;
26806;SDS011;14380;49.910;6.792;2022-08-03T05:13:15;2.40;;;2.20;;
26806;SDS011;14380;49.910;6.792;2022-08-03T05:15:42;4.88;;;2.45;;
26806;SDS011;14380;49.910;6.792;2022-08-03T05:18:09;3.33;;;1.95;;
26806;SDS011;14380;49.910;6.792;2022-08-03T05:20:37;3.60;;;2.10;;
26806;SDS011;14380;49.910;6.792;2022-08-03T05:23:03;2.72;;;2.20;;
26806;SDS011;14380;49.910;6.792;2022-08-03T05:25:30;2.83;;;2.03;;
26806;SDS011;14380;49.910;6.792;2022-08-03T05:27:57;2.35;;;1.95;;
26806;SDS011;14380;49.910;6.792;2022-08-03T05:30:23;2.67;;;2.03;;
26806;SDS011;14380;49.910;6.792;2022-08-03T05:32:50;3.33;;;2.00;;
26806;SDS011;14380;49.910;6.792;2022-08-03T05:35:17;2.13;;;2.00;;
26806;SDS011;14380;49.910;6.792;2022-08-03T05:37:45;2.42;;;2.00;;
26806;SDS011;14380;49.910;6.792;2022-08-03T05:40:12;2.63;;;2.33;;
26806;SDS011;14380;49.910;6.792;2022-08-03T05:42:38;3.67;;;2.00;;
26806;SDS011;14380;49.910;6.792;2022-08-03T05:45:05;4.53;;;2.10;;
26806;SDS011;14380;49.910;6.792;2022-08-03T05:47:39;4.40;;;1.98;;
26806;SDS011;14380;49.910;6.792;2022-08-03T05:50:08;3.35;;;2.17;;
26806;SDS011;14380;49.910;6.792;2022-08-03T05:52:35;2.20;;;2.00;;
26806;SDS011;14380;49.910;6.792;2022-08-03T05:55:04;2.33;;;1.90;;
26806;SDS011;14380;49.910;6.792;2022-08-03T05:57:31;14.75;;;2.10;;
26806;SDS011;14380;49.910;6.792;2022-08-03T05:59:58;2.05;;;1.95;;
26806;SDS011;14380;49.910;6.792;2022-08-03T06:02:25;2.53;;;2.15;;
26806;SDS011;14380;49.910;6.792;2022-08-03T06:04:52;2.10;;;1.85;;
26806;SDS011;14380;49.910;6.792;2022-08-03T06:07:18;2.85;;;1.80;;
26806;SDS011;14380;49.910;6.792;2022-08-03T06:09:45;2.60;;;2.22;;
26806;SDS011;14380;49.910;6.792;2022-08-03T06:12:13;4.22;;;2.40;;
26806;SDS011;14380;49.910;6.792;2022-08-03T06:14:40;3.83;;;2.53;;
26806;SDS011;14380;49.910;6.792;2022-08-03T06:17:06;8.15;;;2.38;;
26806;SDS011;14380;49.910;6.792;2022-08-03T06:19:33;3.72;;;2.00;;
26806;SDS011;14380;49.910;6.792;2022-08-03T06:22:00;2.25;;;2.05;;
26806;SDS011;14380;49.910;6.792;2022-08-03T06:24:26;2.95;;;1.95;;
26806;SDS011;14380;49.910;6.792;2022-08-03T06:26:53;2.22;;;2.00;;
26806;SDS011;14380;49.910;6.792;2022-08-03T06:29:21;2.00;;;1.80;;
26806;SDS011;14380;49.910;6.792;2022-08-03T06:31:48;2.10;;;2.00;;
26806;SDS011;14380;49.910;6.792;2022-08-03T06:34:15;1.98;;;1.75;;
26806;SDS011;14380;49.910;6.792;2022-08-03T06:36:42;2.47;;;2.10;;
26806;SDS011;14380;49.910;6.792;2022-08-03T06:39:08;2.58;;;2.15;;
26806;SDS011;14380;49.910;6.792;2022-08-03T06:41:37;3.67;;;2.28;;
26806;SDS011;14380;49.910;6.792;2022-08-03T06:44:03;4.95;;;2.15;;
26806;SDS011;14380;49.910;6.792;2022-08-03T06:46:31;1.80;;;1.70;;
26806;SDS011;14380;49.910;6.792;2022-08-03T06:48:58;3.88;;;1.80;;
26806;SDS011;14380;49.910;6.792;2022-08-03T06:51:25;2.90;;;1.52;;
26806;SDS011;14380;49.910;6.792;2022-08-03T06:53:51;3.22;;;1.80;;
26806;SDS011;14380;49.910;6.792;2022-08-03T06:56:18;4.90;;;2.72;;
26806;SDS011;14380;49.910;6.792;2022-08-03T06:58:45;3.30;;;1.70;;
26806;SDS011;14380;49.910;6.792;2022-08-03T07:01:13;3.13;;;2.10;;
26806;SDS011;14380;49.910;6.792;2022-08-03T07:03:41;3.45;;;1.63;;
26806;SDS011;14380;49.910;6.792;2022-08-03T07:06:07;8.57;;;2.03;;
26806;SDS011;14380;49.910;6.792;2022-08-03T07:08:34;9.23;;;1.85;;
26806;SDS011;14380;49.910;6.792;2022-08-03T07:11:01;13.50;;;2.30;;
26806;SDS011;14380;49.910;6.792;2022-08-03T07:13:28;11.00;;;2.15;;
26806;SDS011;14380;49.910;6.792;2022-08-03T07:15:54;6.55;;;2.08;;
26806;SDS011;14380;49.910;6.792;2022-08-03T07:18:21;7.10;;;1.77;;
26806;SDS011;14380;49.910;6.792;2022-08-03T07:20:49;8.65;;;1.83;;
26806;SDS011;14380;49.910;6.792;2022-08-03T07:23:16;13.52;;;2.58;;
26806;SDS011;14380;49.910;6.792;2022-08-03T07:25:43;9.93;;;2.05;;
26806;SDS011;14380;49.910;6.792;2022-08-03T07:28:09;10.18;;;2.08;;
26806;SDS011;14380;49.910;6.792;2022-08-03T07:30:36;12.48;;;2.40;;
26806;SDS011;14380;49.910;6.792;2022-08-03T07:33:03;15.35;;;2.05;;
26806;SDS011;14380;49.910;6.792;2022-08-03T07:35:29;7.35;;;2.03;;
26806;SDS011;14380;49.910;6.792;2022-08-03T07:37:58;4.63;;;1.73;;
26806;SDS011;14380;49.910;6.792;2022-08-03T07:40:24;9.05;;;2.30;;
26806;SDS011;14380;49.910;6.792;2022-08-03T07:42:51;8.43;;;1.80;;
26806;SDS011;14380;49.910;6.792;2022-08-03T07:45:17;7.00;;;1.92;;
26806;SDS011;14380;49.910;6.792;2022-08-03T07:47:45;12.73;;;1.92;;
26806;SDS011;14380;49.910;6.792;2022-08-03T07:50:12;3.38;;;1.52;;
26806;SDS011;14380;49.910;6.792;2022-08-03T07:52:38;2.10;;;1.50;;
26806;SDS011;14380;49.910;6.792;2022-08-03T07:55:15;4.93;;;2.10;;
26806;SDS011;14380;49.910;6.792;2022-08-03T07:57:43;7.65;;;1.60;;
26806;SDS011;14380;49.910;6.792;2022-08-03T08:00:12;4.10;;;1.70;;
26806;SDS011;14380;49.910;6.792;2022-08-03T08:02:40;3.17;;;1.83;;
26806;SDS011;14380;49.910;6.792;2022-08-03T08:05:07;5.28;;;1.77;;
26806;SDS011;14380;49.910;6.792;2022-08-03T08:07:35;9.90;;;1.95;;
26806;SDS011;14380;49.910;6.792;2022-08-03T08:10:02;5.65;;;1.45;;
26806;SDS011;14380;49.910;6.792;2022-08-03T08:12:30;4.35;;;1.60;;
26806;SDS011;14380;49.910;6.792;2022-08-03T08:14:57;5.00;;;1.48;;
26806;SDS011;14380;49.910;6.792;2022-08-03T08:17:23;5.47;;;1.42;;
26806;SDS011;14380;49.910;6.792;2022-08-03T08:19:50;5.43;;;1.58;;
26806;SDS011;14380;49.910;6.792;2022-08-03T08:22:17;4.35;;;1.35;;
26806;SDS011;14380;49.910;6.792;2022-08-03T08:24:44;11.18;;;1.70;;
26806;SDS011;14380;49.910;6.792;2022-08-03T08:27:13;6.10;;;1.40;;
26806;SDS011;14380;49.910;6.792;2022-08-03T08:29:41;4.90;;;1.50;;
26806;SDS011;14380;49.910;6.792;2022-08-03T08:32:07;5.47;;;1.60;;
26806;SDS011;14380;49.910;6.792;2022-08-03T08:34:35;4.88;;;1.30;;
26806;SDS011;14380;49.910;6.792;2022-08-03T08:37:02;6.18;;;1.70;;
26806;SDS011;14380;49.910;6.792;2022-08-03T08:39:28;1.98;;;1.33;;
26806;SDS011;14380;49.910;6.792;2022-08-03T08:41:55;7.80;;;1.40;;
26806;SDS011;14380;49.910;6.792;2022-08-03T08:44:22;2.50;;;1.30;;
26806;SDS011;14380;49.910;6.792;2022-08-03T08:46:50;2.75;;;1.45;;
26806;SDS011;14380;49.910;6.792;2022-08-03T08:49:21;3.08;;;1.45;;
26806;SDS011;14380;49.910;6.792;2022-08-03T08:51:49;5.78;;;1.60;;
26806;SDS011;14380;49.910;6.792;2022-08-03T08:54:18;4.40;;;1.50;;
26806;SDS011;14380;49.910;6.792;2022-08-03T08:56:47;3.20;;;1.40;;
26806;SDS011;14380;49.910;6.792;2022-08-03T08:59:16;3.13;;;1.45;;
26806;SDS011;14380;49.910;6.792;2022-08-03T09:01:44;3.10;;;1.10;;
26806;SDS011;14380;49.910;6.792;2022-08-03T09:04:12;2.85;;;1.42;;
26806;SDS011;14380;49.910;6.792;2022-08-03T09:06:39;6.80;;;1.63;;
26806;SDS011;14380;49.910;6.792;2022-08-03T09:09:05;4.10;;;1.55;;
26806;SDS011;14380;49.910;6.792;2022-08-03T09:11:33;10.13;;;1.73;;
26806;SDS011;14380;49.910;6.792;2022-08-03T09:14:00;1.90;;;1.40;;
26806;SDS011;14380;49.910;6.792;2022-08-03T09:16:26;2.50;;;1.60;;
26806;SDS011;14380;49.910;6.792;2022-08-03T09:18:53;2.83;;;1.38;;
26806;SDS011;14380;49.910;6.792;2022-08-03T09:21:22;3.15;;;1.30;;
26806;SDS011;14380;49.910;6.792;2022-08-03T09:23:51;2.90;;;1.30;;
26806;SDS011;14380;49.910;6.792;2022-08-03T09:26:20;3.70;;;1.40;;
26806;SDS011;14380;49.910;6.792;2022-08-03T09:28:57;5.35;;;1.20;;
26806;SDS011;14380;49.910;6.792;2022-08-03T09:31:28;2.17;;;1.10;;
26806;SDS011;14380;49.910;6.792;2022-08-03T09:33:56;5.25;;;1.00;;
26806;SDS011;14380;49.910;6.792;2022-08-03T09:36:36;3.13;;;1.08;;
26806;SDS011;14380;49.910;6.792;2022-08-03T09:39:05;3.80;;;0.88;;
26806;SDS011;14380;49.910;6.792;2022-08-03T09:41:35;1.63;;;1.00;;
26806;SDS011;14380;49.910;6.792;2022-08-03T09:44:02;2.25;;;1.02;;
26806;SDS011;14380;49.910;6.792;2022-08-03T09:46:29;3.15;;;0.73;;
26806;SDS011;14380;49.910;6.792;2022-08-03T09:49:09;2.38;;;0.60;;
26806;SDS011;14380;49.910;6.792;2022-08-03T09:51:38;3.03;;;0.60;;
26806;SDS011;14380;49.910;6.792;2022-08-03T09:54:06;0.75;;;0.60;;
26806;SDS011;14380;49.910;6.792;2022-08-03T09:56:39;4.63;;;1.00;;
26806;SDS011;14380;49.910;6.792;2022-08-03T09:59:07;4.18;;;1.05;;
26806;SDS011;14380;49.910;6.792;2022-08-03T10:01:34;3.05;;;0.73;;
26806;SDS011;14380;49.910;6.792;2022-08-03T10:04:03;2.15;;;0.70;;
26806;SDS011;14380;49.910;6.792;2022-08-03T10:06:30;2.45;;;0.75;;
26806;SDS011;14380;49.910;6.792;2022-08-03T10:09:07;1.00;;;0.80;;
26806;SDS011;14380;49.910;6.792;2022-08-03T10:11:35;1.30;;;0.68;;
26806;SDS011;14380;49.910;6.792;2022-08-03T10:14:03;3.13;;;0.60;;
26806;SDS011;14380;49.910;6.792;2022-08-03T10:16:32;1.92;;;0.60;;
26806;SDS011;14380;49.910;6.792;2022-08-03T10:19:00;3.28;;;0.80;;
26806;SDS011;14380;49.910;6.792;2022-08-03T10:21:28;2.15;;;0.70;;
26806;SDS011;14380;49.910;6.792;2022-08-03T10:23:59;2.42;;;0.60;;
26806;SDS011;14380;49.910;6.792;2022-08-03T10:26:31;2.80;;;0.70;;
26806;SDS011;14380;49.910;6.792;2022-08-03T10:28:59;2.33;;;0.70;;
26806;SDS011;14380;49.910;6.792;2022-08-03T10:31:31;0.57;;;0.55;;
26806;SDS011;14380;49.910;6.792;2022-08-03T10:34:04;1.95;;;0.57;;
26806;SDS011;14380;49.910;6.792;2022-08-03T10:36:34;0.93;;;0.57;;
26806;SDS011;14380;49.910;6.792;2022-08-03T10:39:03;1.40;;;0.70;;
26806;SDS011;14380;49.910;6.792;2022-08-03T10:41:31;0.60;;;0.60;;
26806;SDS011;14380;49.910;6.792;2022-08-03T10:44:04;2.60;;;0.60;;
26806;SDS011;14380;49.910;6.792;2022-08-03T10:46:34;1.15;;;0.50;;
26806;SDS011;14380;49.910;6.792;2022-08-03T10:49:03;2.55;;;0.60;;
26806;SDS011;14380;49.910;6.792;2022-08-03T10:51:31;0.50;;;0.40;;
26806;SDS011;14380;49.910;6.792;2022-08-03T10:53:58;0.90;;;0.40;;
26806;SDS011;14380;49.910;6.792;2022-08-03T10:56:38;1.65;;;0.50;;
26806;SDS011;14380;49.910;6.792;2022-08-03T11:05:24;1.85;;;0.52;;
26806;SDS011;14380;49.910;6.792;2022-08-03T11:10:43;1.58;;;0.63;;
26806;SDS011;14380;49.910;6.792;2022-08-03T11:13:12;1.25;;;0.50;;
26806;SDS011;14380;49.910;6.792;2022-08-03T11:15:42;3.42;;;0.60;;
26806;SDS011;14380;49.910;6.792;2022-08-03T11:18:10;2.97;;;0.70;;
26806;SDS011;14380;49.910;6.792;2022-08-03T11:20:48;0.93;;;0.60;;
26806;SDS011;14380;49.910;6.792;2022-08-03T11:23:19;1.08;;;0.60;;
26806;SDS011;14380;49.910;6.792;2022-08-03T11:26:07;4.32;;;0.60;;
26806;SDS011;14380;49.910;6.792;2022-08-03T11:28:45;1.50;;;0.70;;
26806;SDS011;14380;49.910;6.792;2022-08-03T11:34:14;1.95;;;0.70;;
26806;SDS011;14380;49.910;6.792;2022-08-03T11:39:47;1.10;;;0.80;;
26806;SDS011;14380;49.910;6.792;2022-08-03T11:45:09;0.95;;;0.65;;
26806;SDS011;14380;49.910;6.792;2022-08-03T11:47:37;4.05;;;1.08;;
26806;SDS011;14380;49.910;6.792;2022-08-03T11:50:05;1.42;;;0.85;;
26806;SDS011;14380;49.910;6.792;2022-08-03T11:52:34;7.50;;;1.00;;
26806;SDS011;14380;49.910;6.792;2022-08-03T11:55:11;0.70;;;0.70;;
26806;SDS011;14380;49.910;6.792;2022-08-03T11:57:40;1.55;;;0.65;;
26806;SDS011;14380;49.910;6.792;2022-08-03T12:00:24;1.20;;;0.80;;
26806;SDS011;14380;49.910;6.792;2022-08-03T12:02:54;2.30;;;0.60;;
26806;SDS011;14380;49.910;6.792;2022-08-03T12:05:32;2.28;;;0.80;;
26806;SDS011;14380;49.910;6.792;2022-08-03T12:07:59;1.05;;;0.82;;
26806;SDS011;14380;49.910;6.792;2022-08-03T12:10:26;3.10;;;0.80;;
26806;SDS011;14380;49.910;6.792;2022-08-03T12:12:54;2.58;;;0.70;;
26806;SDS011;14380;49.910;6.792;2022-08-03T12:15:24;2.97;;;0.80;;
26806;SDS011;14380;49.910;6.792;2022-08-03T12:17:52;0.95;;;0.80;;
26806;SDS011;14380;49.910;6.792;2022-08-03T12:20:23;3.08;;;0.70;;
26806;SDS011;14380;49.910;6.792;2022-08-03T12:22:53;1.63;;;0.88;;
26806;SDS011;14380;49.910;6.792;2022-08-03T12:25:20;3.28;;;1.70;;
26806;SDS011;14380;49.910;6.792;2022-08-03T12:27:48;2.03;;;0.80;;
26806;SDS011;14380;49.910;6.792;2022-08-03T12:30:15;4.03;;;0.88;;
26806;SDS011;14380;49.910;6.792;2022-08-03T12:32:43;7.05;;;0.90;;
26806;SDS011;14380;49.910;6.792;2022-08-03T12:35:20;5.22;;;0.88;;
26806;SDS011;14380;49.910;6.792;2022-08-03T12:37:48;2.88;;;1.05;;
26806;SDS011;14380;49.910;6.792;2022-08-03T12:40:15;3.88;;;0.80;;
26806;SDS011;14380;49.910;6.792;2022-08-03T12:42:49;2.80;;;0.90;;
26806;SDS011;14380;49.910;6.792;2022-08-03T12:45:17;4.68;;;0.88;;
26806;SDS011;14380;49.910;6.792;2022-08-03T12:47:52;2.50;;;0.95;;
26806;SDS011;14380;49.910;6.792;2022-08-03T12:50:25;2.67;;;0.73;;
26806;SDS011;14380;49.910;6.792;2022-08-03T12:52:52;2.88;;;0.70;;
26806;SDS011;14380;49.910;6.792;2022-08-03T12:55:20;2.83;;;0.82;;
26806;SDS011;14380;49.910;6.792;2022-08-03T12:57:48;2.10;;;1.00;;
26806;SDS011;14380;49.910;6.792;2022-08-03T13:00:16;3.42;;;0.75;;
26806;SDS011;14380;49.910;6.792;2022-08-03T13:02:45;1.58;;;0.77;;
26806;SDS011;14380;49.910;6.792;2022-08-03T13:05:26;2.00;;;0.82;;
26806;SDS011;14380;49.910;6.792;2022-08-03T13:07:53;3.85;;;0.77;;
26806;SDS011;14380;49.910;6.792;2022-08-03T13:10:26;3.75;;;0.70;;
26806;SDS011;14380;49.910;6.792;2022-08-03T13:12:55;1.13;;;0.70;;
26806;SDS011;14380;49.910;6.792;2022-08-03T13:15:24;2.58;;;1.00;;
26806;SDS011;14380;49.910;6.792;2022-08-03T13:17:52;3.42;;;0.60;;
26806;SDS011;14380;49.910;6.792;2022-08-03T13:20:21;2.50;;;0.65;;
26806;SDS011;14380;49.910;6.792;2022-08-03T13:22:48;0.75;;;0.50;;
26806;SDS011;14380;49.910;6.792;2022-08-03T13:25:15;7.15;;;0.70;;
26806;SDS011;14380;49.910;6.792;2022-08-03T13:27:42;1.27;;;0.60;;
26806;SDS011;14380;49.910;6.792;2022-08-03T13:30:09;2.65;;;0.60;;
26806;SDS011;14380;49.910;6.792;2022-08-03T13:32:36;2.58;;;0.60;;
26806;SDS011;14380;49.910;6.792;2022-08-03T13:35:03;2.22;;;0.60;;
26806;SDS011;14380;49.910;6.792;2022-08-03T13:37:32;4.00;;;0.50;;
26806;SDS011;14380;49.910;6.792;2022-08-03T13:39:59;2.83;;;0.60;;
26806;SDS011;14380;49.910;6.792;2022-08-03T13:42:27;3.05;;;0.70;;
26806;SDS011;14380;49.910;6.792;2022-08-03T13:44:55;2.10;;;0.60;;
26806;SDS011;14380;49.910;6.792;2022-08-03T13:47:21;4.32;;;0.88;;
26806;SDS011;14380;49.910;6.792;2022-08-03T13:49:48;2.95;;;0.50;;
26806;SDS011;14380;49.910;6.792;2022-08-03T13:52:17;0.80;;;0.50;;
26806;SDS011;14380;49.910;6.792;2022-08-03T13:54:45;4.15;;;0.50;;
26806;SDS011;14380;49.910;6.792;2022-08-03T13:57:12;1.83;;;0.60;;
26806;SDS011;14380;49.910;6.792;2022-08-03T13:59:38;1.13;;;0.50;;
26806;SDS011;14380;49.910;6.792;2022-08-03T14:02:05;2.85;;;0.73;;
26806;SDS011;14380;49.910;6.792;2022-08-03T14:04:32;0.47;;;0.47;;
26806;SDS011;14380;49.910;6.792;2022-08-03T14:06:58;1.80;;;0.88;;
26806;SDS011;14380;49.910;6.792;2022-08-03T14:09:25;1.85;;;0.47;;
26806;SDS011;14380;49.910;6.792;2022-08-03T14:11:53;2.78;;;0.60;;
26806;SDS011;14380;49.910;6.792;2022-08-03T14:14:20;0.90;;;0.35;;
26806;SDS011;14380;49.910;6.792;2022-08-03T14:16:46;0.98;;;0.52;;
26806;SDS011;14380;49.910;6.792;2022-08-03T14:19:13;1.63;;;0.60;;
26806;SDS011;14380;49.910;6.792;2022-08-03T14:21:40;0.88;;;0.60;;
26806;SDS011;14380;49.910;6.792;2022-08-03T14:24:07;0.47;;;0.47;;
26806;SDS011;14380;49.910;6.792;2022-08-03T14:26:33;1.65;;;0.50;;
26806;SDS011;14380;49.910;6.792;2022-08-03T14:29:02;1.60;;;0.55;;
26806;SDS011;14380;49.910;6.792;2022-08-03T14:31:29;1.70;;;0.55;;
26806;SDS011;14380;49.910;6.792;2022-08-03T14:33:56;0.75;;;0.40;;
26806;SDS011;14380;49.910;6.792;2022-08-03T14:36:23;1.85;;;0.52;;
26806;SDS011;14380;49.910;6.792;2022-08-03T14:38:50;3.15;;;0.63;;
26806;SDS011;14380;49.910;6.792;2022-08-03T14:41:17;1.13;;;0.57;;
26806;SDS011;14380;49.910;6.792;2022-08-03T14:43:43;1.88;;;0.38;;
26806;SDS011;14380;49.910;6.792;2022-08-03T14:46:11;2.17;;;0.50;;
26806;SDS011;14380;49.910;6.792;2022-08-03T14:48:38;1.75;;;0.50;;
26806;SDS011;14380;49.910;6.792;2022-08-03T14:51:05;0.98;;;0.50;;
26806;SDS011;14380;49.910;6.792;2022-08-03T14:53:32;1.10;;;0.60;;
26806;SDS011;14380;49.910;6.792;2022-08-03T14:55:59;2.08;;;0.57;;
26806;SDS011;14380;49.910;6.792;2022-08-03T14:58:26;2.88;;;0.50;;
26806;SDS011;14380;49.910;6.792;2022-08-03T15:00:53;1.02;;;0.47;;
26806;SDS011;14380;49.910;6.792;2022-08-03T15:03:23;4.88;;;0.50;;
26806;SDS011;14380;49.910;6.792;2022-08-03T15:05:49;2.60;;;0.50;;
26806;SDS011;14380;49.910;6.792;2022-08-03T15:08:17;1.40;;;0.60;;
26806;SDS011;14380;49.910;6.792;2022-08-03T15:10:43;3.60;;;0.40;;
26806;SDS011;14380;49.910;6.792;2022-08-03T15:13:10;0.85;;;0.50;;
26806;SDS011;14380;49.910;6.792;2022-08-03T15:15:37;1.00;;;0.40;;